sensor_id;sensor_type;location;lat;lon;timestamp;P1;durP1;ratioP1;P2;durP2;ratioP2
63398;SDS011;49533;-34.520;150.798;2024-01-27T00:02:14;7.03;;;2.92;;
63398;SDS011;49533;-34.520;150.798;2024-01-27T00:04:42;7.90;;;2.50;;
63398;SDS011;49533;-34.520;150.798;2024-01-27T00:07:09;10.88;;;3.35;;
63398;SDS011;49533;-34.520;150.798;2024-01-27T00:09:36;9.55;;;2.78;;
63398;SDS011;49533;-34.520;150.798;2024-01-27T00:12:03;7.72;;;2.80;;
63398;SDS011;49533;-34.520;150.798;2024-01-27T00:14:30;10.00;;;3.33;;
63398;SDS011;49533;-34.520;150.798;2024-01-27T00:16:57;6.40;;;2.70;;
63398;SDS011;49533;-34.520;150.798;2024-01-27T00:19:24;6.38;;;2.78;;
63398;SDS011;49533;-34.520;150.798;2024-01-27T00:21:51;7.13;;;2.60;;
63398;SDS011;49533;-34.520;150.798;2024-01-27T00:24:21;6.50;;;2.72;;
63398;SDS011;49533;-34.520;150.798;2024-01-27T00:26:48;5.75;;;2.58;;
63398;SDS011;49533;-34.520;150.798;2024-01-27T00:29:15;8.30;;;2.30;;
63398;SDS011;49533;-34.520;150.798;2024-01-27T00:31:42;10.52;;;3.13;;
63398;SDS011;49533;-34.520;150.798;2024-01-27T00:34:10;5.90;;;2.63;;
63398;SDS011;49533;-34.520;150.798;2024-01-27T00:36:37;10.18;;;2.90;;
63398;SDS011;49533;-34.520;150.798;2024-01-27T00:39:04;17.17;;;4.22;;
63398;SDS011;49533;-34.520;150.798;2024-01-27T00:41:31;22.02;;;4.15;;
63398;SDS011;49533;-34.520;150.798;2024-01-27T00:43:58;17.52;;;4.88;;
63398;SDS011;49533;-34.520;150.798;2024-01-27T00:46:25;17.10;;;3.65;;
63398;SDS011;49533;-34.520;150.798;2024-01-27T00:48:52;13.13;;;4.40;;
63398;SDS011;49533;-34.520;150.798;2024-01-27T00:51:20;14.80;;;3.42;;
63398;SDS011;49533;-34.520;150.798;2024-01-27T00:53:47;7.82;;;3.00;;
63398;SDS011;49533;-34.520;150.798;2024-01-27T00:56:14;10.20;;;3.08;;
63398;SDS011;49533;-34.520;150.798;2024-01-27T00:58:41;11.00;;;3.35;;
63398;SDS011;49533;-34.520;150.798;2024-01-27T01:01:08;12.85;;;3.85;;
63398;SDS011;49533;-34.520;150.798;2024-01-27T01:03:35;13.10;;;3.78;;
63398;SDS011;49533;-34.520;150.798;2024-01-27T01:06:03;11.45;;;3.95;;
63398;SDS011;49533;-34.520;150.798;2024-01-27T01:08:31;14.73;;;3.78;;
63398;SDS011;49533;-34.520;150.798;2024-01-27T01:10:58;13.10;;;3.70;;
63398;SDS011;49533;-34.520;150.798;2024-01-27T01:13:25;9.95;;;3.20;;
63398;SDS011;49533;-34.520;150.798;2024-01-27T01:15:52;8.55;;;3.13;;
63398;SDS011;49533;-34.520;150.798;2024-01-27T01:18:19;10.18;;;3.17;;
63398;SDS011;49533;-34.520;150.798;2024-01-27T01:20:46;8.10;;;2.95;;
63398;SDS011;49533;-34.520;150.798;2024-01-27T01:23:13;11.60;;;3.03;;
63398;SDS011;49533;-34.520;150.798;2024-01-27T01:25:41;11.18;;;3.53;;
63398;SDS011;49533;-34.520;150.798;2024-01-27T01:28:09;17.35;;;3.22;;
63398;SDS011;49533;-34.520;150.798;2024-01-27T01:30:37;14.98;;;3.90;;
63398;SDS011;49533;-34.520;150.798;2024-01-27T01:33:04;12.32;;;3.50;;
63398;SDS011;49533;-34.520;150.798;2024-01-27T01:35:31;16.50;;;4.20;;
63398;SDS011;49533;-34.520;150.798;2024-01-27T01:38:03;15.07;;;4.03;;
63398;SDS011;49533;-34.520;150.798;2024-01-27T01:40:30;16.48;;;4.20;;
63398;SDS011;49533;-34.520;150.798;2024-01-27T01:42:58;12.57;;;3.60;;
63398;SDS011;49533;-34.520;150.798;2024-01-27T01:45:25;17.70;;;4.35;;
63398;SDS011;49533;-34.520;150.798;2024-01-27T01:47:52;14.23;;;4.00;;
63398;SDS011;49533;-34.520;150.798;2024-01-27T01:50:20;18.63;;;4.90;;
63398;SDS011;49533;-34.520;150.798;2024-01-27T01:52:48;15.07;;;4.13;;
63398;SDS011;49533;-34.520;150.798;2024-01-27T01:55:18;16.98;;;3.88;;
63398;SDS011;49533;-34.520;150.798;2024-01-27T01:57:45;16.15;;;4.32;;
63398;SDS011;49533;-34.520;150.798;2024-01-27T02:00:14;18.65;;;4.07;;
63398;SDS011;49533;-34.520;150.798;2024-01-27T02:02:45;12.93;;;3.65;;
63398;SDS011;49533;-34.520;150.798;2024-01-27T02:05:15;11.90;;;3.45;;
63398;SDS011;49533;-34.520;150.798;2024-01-27T02:07:45;16.50;;;4.03;;
63398;SDS011;49533;-34.520;150.798;2024-01-27T02:10:16;14.52;;;3.65;;
63398;SDS011;49533;-34.520;150.798;2024-01-27T02:12:44;17.33;;;4.32;;
63398;SDS011;49533;-34.520;150.798;2024-01-27T02:15:12;14.77;;;4.28;;
63398;SDS011;49533;-34.520;150.798;2024-01-27T02:17:39;17.35;;;4.80;;
63398;SDS011;49533;-34.520;150.798;2024-01-27T02:20:07;17.65;;;4.93;;
63398;SDS011;49533;-34.520;150.798;2024-01-27T02:22:35;15.98;;;3.97;;
63398;SDS011;49533;-34.520;150.798;2024-01-27T02:25:03;12.75;;;3.95;;
63398;SDS011;49533;-34.520;150.798;2024-01-27T02:27:33;14.95;;;4.20;;
63398;SDS011;49533;-34.520;150.798;2024-01-27T02:30:00;8.27;;;3.67;;
63398;SDS011;49533;-34.520;150.798;2024-01-27T02:32:27;7.72;;;3.30;;
63398;SDS011;49533;-34.520;150.798;2024-01-27T02:34:54;11.68;;;3.45;;
63398;SDS011;49533;-34.520;150.798;2024-01-27T02:37:21;9.07;;;3.35;;
63398;SDS011;49533;-34.520;150.798;2024-01-27T02:39:49;9.77;;;3.42;;
63398;SDS011;49533;-34.520;150.798;2024-01-27T02:42:16;9.27;;;3.00;;
63398;SDS011;49533;-34.520;150.798;2024-01-27T02:44:43;10.00;;;2.70;;
63398;SDS011;49533;-34.520;150.798;2024-01-27T02:47:10;11.23;;;3.25;;
63398;SDS011;49533;-34.520;150.798;2024-01-27T02:49:37;7.70;;;3.08;;
63398;SDS011;49533;-34.520;150.798;2024-01-27T02:52:04;10.48;;;3.05;;
63398;SDS011;49533;-34.520;150.798;2024-01-27T02:54:31;7.70;;;3.00;;
63398;SDS011;49533;-34.520;150.798;2024-01-27T02:56:58;10.27;;;3.17;;
63398;SDS011;49533;-34.520;150.798;2024-01-27T02:59:25;7.40;;;2.92;;
63398;SDS011;49533;-34.520;150.798;2024-01-27T03:01:52;7.15;;;2.72;;
63398;SDS011;49533;-34.520;150.798;2024-01-27T03:04:19;7.15;;;2.85;;
63398;SDS011;49533;-34.520;150.798;2024-01-27T03:06:47;9.60;;;2.75;;
63398;SDS011;49533;-34.520;150.798;2024-01-27T03:09:14;7.10;;;2.80;;
63398;SDS011;49533;-34.520;150.798;2024-01-27T03:11:41;6.47;;;2.60;;
63398;SDS011;49533;-34.520;150.798;2024-01-27T03:14:12;6.18;;;2.72;;
63398;SDS011;49533;-34.520;150.798;2024-01-27T03:16:39;6.28;;;2.40;;
63398;SDS011;49533;-34.520;150.798;2024-01-27T03:19:06;5.35;;;2.25;;
63398;SDS011;49533;-34.520;150.798;2024-01-27T03:21:33;5.45;;;2.55;;
63398;SDS011;49533;-34.520;150.798;2024-01-27T03:24:00;4.35;;;2.08;;
63398;SDS011;49533;-34.520;150.798;2024-01-27T03:26:27;5.05;;;2.55;;
63398;SDS011;49533;-34.520;150.798;2024-01-27T03:28:55;7.85;;;2.80;;
63398;SDS011;49533;-34.520;150.798;2024-01-27T03:31:22;3.15;;;1.60;;
63398;SDS011;49533;-34.520;150.798;2024-01-27T03:33:49;3.65;;;1.83;;
63398;SDS011;49533;-34.520;150.798;2024-01-27T03:36:16;5.57;;;2.30;;
63398;SDS011;49533;-34.520;150.798;2024-01-27T03:38:43;5.75;;;2.35;;
63398;SDS011;49533;-34.520;150.798;2024-01-27T03:41:11;6.30;;;2.45;;
63398;SDS011;49533;-34.520;150.798;2024-01-27T03:43:38;5.82;;;1.95;;
63398;SDS011;49533;-34.520;150.798;2024-01-27T03:46:05;6.10;;;2.72;;
63398;SDS011;49533;-34.520;150.798;2024-01-27T03:48:32;4.15;;;2.15;;
63398;SDS011;49533;-34.520;150.798;2024-01-27T03:51:02;4.28;;;1.98;;
63398;SDS011;49533;-34.520;150.798;2024-01-27T03:53:29;6.90;;;2.83;;
63398;SDS011;49533;-34.520;150.798;2024-01-27T03:55:57;5.13;;;2.30;;
63398;SDS011;49533;-34.520;150.798;2024-01-27T03:58:25;4.28;;;1.90;;
63398;SDS011;49533;-34.520;150.798;2024-01-27T04:00:52;5.63;;;2.00;;
63398;SDS011;49533;-34.520;150.798;2024-01-27T04:03:19;4.45;;;2.10;;
63398;SDS011;49533;-34.520;150.798;2024-01-27T04:05:47;5.25;;;2.30;;
63398;SDS011;49533;-34.520;150.798;2024-01-27T04:08:14;5.82;;;2.33;;
63398;SDS011;49533;-34.520;150.798;2024-01-27T04:10:41;6.13;;;2.25;;
63398;SDS011;49533;-34.520;150.798;2024-01-27T04:13:08;5.13;;;2.55;;
63398;SDS011;49533;-34.520;150.798;2024-01-27T04:15:35;7.68;;;2.50;;
63398;SDS011;49533;-34.520;150.798;2024-01-27T04:18:04;7.75;;;2.65;;
63398;SDS011;49533;-34.520;150.798;2024-01-27T04:20:36;5.97;;;2.83;;
63398;SDS011;49533;-34.520;150.798;2024-01-27T04:23:03;7.13;;;2.92;;
63398;SDS011;49533;-34.520;150.798;2024-01-27T04:25:30;7.68;;;2.80;;
63398;SDS011;49533;-34.520;150.798;2024-01-27T04:27:58;6.25;;;2.60;;
63398;SDS011;49533;-34.520;150.798;2024-01-27T04:30:25;7.22;;;2.60;;
63398;SDS011;49533;-34.520;150.798;2024-01-27T04:32:52;7.60;;;3.13;;
63398;SDS011;49533;-34.520;150.798;2024-01-27T04:35:19;5.05;;;2.55;;
63398;SDS011;49533;-34.520;150.798;2024-01-27T04:37:46;9.32;;;3.13;;
63398;SDS011;49533;-34.520;150.798;2024-01-27T04:40:13;7.82;;;3.10;;
63398;SDS011;49533;-34.520;150.798;2024-01-27T04:42:41;8.02;;;2.50;;
63398;SDS011;49533;-34.520;150.798;2024-01-27T04:45:08;7.32;;;3.00;;
63398;SDS011;49533;-34.520;150.798;2024-01-27T04:47:35;8.38;;;3.05;;
63398;SDS011;49533;-34.520;150.798;2024-01-27T04:50:02;5.93;;;2.72;;
63398;SDS011;49533;-34.520;150.798;2024-01-27T04:52:30;6.82;;;2.70;;
63398;SDS011;49533;-34.520;150.798;2024-01-27T04:54:57;8.95;;;3.22;;
63398;SDS011;49533;-34.520;150.798;2024-01-27T04:57:27;7.90;;;2.45;;
63398;SDS011;49533;-34.520;150.798;2024-01-27T05:00:05;6.65;;;2.42;;
63398;SDS011;49533;-34.520;150.798;2024-01-27T05:02:33;6.70;;;2.40;;
63398;SDS011;49533;-34.520;150.798;2024-01-27T05:05:01;7.32;;;2.42;;
63398;SDS011;49533;-34.520;150.798;2024-01-27T05:07:28;6.63;;;2.38;;
63398;SDS011;49533;-34.520;150.798;2024-01-27T05:09:55;4.68;;;1.83;;
63398;SDS011;49533;-34.520;150.798;2024-01-27T05:12:22;5.30;;;2.22;;
63398;SDS011;49533;-34.520;150.798;2024-01-27T05:14:50;9.68;;;2.80;;
63398;SDS011;49533;-34.520;150.798;2024-01-27T05:17:20;7.97;;;2.65;;
63398;SDS011;49533;-34.520;150.798;2024-01-27T05:19:47;6.72;;;2.45;;
63398;SDS011;49533;-34.520;150.798;2024-01-27T05:22:16;9.15;;;3.20;;
63398;SDS011;49533;-34.520;150.798;2024-01-27T05:24:43;6.50;;;2.33;;
63398;SDS011;49533;-34.520;150.798;2024-01-27T05:27:10;6.03;;;2.80;;
63398;SDS011;49533;-34.520;150.798;2024-01-27T05:29:37;6.68;;;2.60;;
63398;SDS011;49533;-34.520;150.798;2024-01-27T05:32:04;7.53;;;2.60;;
63398;SDS011;49533;-34.520;150.798;2024-01-27T05:34:31;7.82;;;2.95;;
63398;SDS011;49533;-34.520;150.798;2024-01-27T05:36:59;7.28;;;2.65;;
63398;SDS011;49533;-34.520;150.798;2024-01-27T05:39:26;7.63;;;2.63;;
63398;SDS011;49533;-34.520;150.798;2024-01-27T05:41:55;10.38;;;3.33;;
63398;SDS011;49533;-34.520;150.798;2024-01-27T05:44:25;6.40;;;2.13;;
63398;SDS011;49533;-34.520;150.798;2024-01-27T05:46:52;7.57;;;2.50;;
63398;SDS011;49533;-34.520;150.798;2024-01-27T05:49:19;4.72;;;2.40;;
63398;SDS011;49533;-34.520;150.798;2024-01-27T05:51:46;7.93;;;2.70;;
63398;SDS011;49533;-34.520;150.798;2024-01-27T05:54:15;6.03;;;2.47;;
63398;SDS011;49533;-34.520;150.798;2024-01-27T05:56:42;7.35;;;2.63;;
63398;SDS011;49533;-34.520;150.798;2024-01-27T05:59:10;7.45;;;2.28;;
63398;SDS011;49533;-34.520;150.798;2024-01-27T06:01:37;5.13;;;2.20;;
63398;SDS011;49533;-34.520;150.798;2024-01-27T06:04:06;6.72;;;2.50;;
63398;SDS011;49533;-34.520;150.798;2024-01-27T06:06:33;7.97;;;2.90;;
63398;SDS011;49533;-34.520;150.798;2024-01-27T06:09:00;9.52;;;2.50;;
63398;SDS011;49533;-34.520;150.798;2024-01-27T06:11:29;7.50;;;2.70;;
63398;SDS011;49533;-34.520;150.798;2024-01-27T06:13:56;13.63;;;2.53;;
63398;SDS011;49533;-34.520;150.798;2024-01-27T06:16:23;11.48;;;2.47;;
63398;SDS011;49533;-34.520;150.798;2024-01-27T06:18:50;12.88;;;3.42;;
63398;SDS011;49533;-34.520;150.798;2024-01-27T06:21:20;8.95;;;2.70;;
63398;SDS011;49533;-34.520;150.798;2024-01-27T06:23:47;10.15;;;2.88;;
63398;SDS011;49533;-34.520;150.798;2024-01-27T06:26:14;10.80;;;2.63;;
63398;SDS011;49533;-34.520;150.798;2024-01-27T06:28:41;11.00;;;2.90;;
63398;SDS011;49533;-34.520;150.798;2024-01-27T06:31:08;6.97;;;2.72;;
63398;SDS011;49533;-34.520;150.798;2024-01-27T06:33:36;10.18;;;3.05;;
63398;SDS011;49533;-34.520;150.798;2024-01-27T06:36:03;10.20;;;2.75;;
63398;SDS011;49533;-34.520;150.798;2024-01-27T06:38:30;6.63;;;2.13;;
63398;SDS011;49533;-34.520;150.798;2024-01-27T06:40:57;9.68;;;2.85;;
63398;SDS011;49533;-34.520;150.798;2024-01-27T06:43:24;7.88;;;3.03;;
63398;SDS011;49533;-34.520;150.798;2024-01-27T06:45:51;6.78;;;2.42;;
63398;SDS011;49533;-34.520;150.798;2024-01-27T06:48:19;7.53;;;2.47;;
63398;SDS011;49533;-34.520;150.798;2024-01-27T06:50:46;6.00;;;2.47;;
63398;SDS011;49533;-34.520;150.798;2024-01-27T06:53:13;8.73;;;2.72;;
63398;SDS011;49533;-34.520;150.798;2024-01-27T06:55:40;8.85;;;3.35;;
63398;SDS011;49533;-34.520;150.798;2024-01-27T06:58:07;9.30;;;2.60;;
63398;SDS011;49533;-34.520;150.798;2024-01-27T07:00:34;6.60;;;2.35;;
63398;SDS011;49533;-34.520;150.798;2024-01-27T07:03:02;8.77;;;2.55;;
63398;SDS011;49533;-34.520;150.798;2024-01-27T07:05:29;6.85;;;2.28;;
63398;SDS011;49533;-34.520;150.798;2024-01-27T07:07:58;7.63;;;2.35;;
63398;SDS011;49533;-34.520;150.798;2024-01-27T07:10:25;7.10;;;2.03;;
63398;SDS011;49533;-34.520;150.798;2024-01-27T07:12:52;9.70;;;3.22;;
63398;SDS011;49533;-34.520;150.798;2024-01-27T07:15:19;8.55;;;3.40;;
63398;SDS011;49533;-34.520;150.798;2024-01-27T07:17:47;6.55;;;2.53;;
63398;SDS011;49533;-34.520;150.798;2024-01-27T07:20:14;10.70;;;2.60;;
63398;SDS011;49533;-34.520;150.798;2024-01-27T07:22:41;9.30;;;2.97;;
63398;SDS011;49533;-34.520;150.798;2024-01-27T07:25:09;9.52;;;2.97;;
63398;SDS011;49533;-34.520;150.798;2024-01-27T07:27:36;8.40;;;2.70;;
63398;SDS011;49533;-34.520;150.798;2024-01-27T07:30:03;7.32;;;2.78;;
63398;SDS011;49533;-34.520;150.798;2024-01-27T07:32:31;7.50;;;3.08;;
63398;SDS011;49533;-34.520;150.798;2024-01-27T07:34:58;9.05;;;2.90;;
63398;SDS011;49533;-34.520;150.798;2024-01-27T07:37:25;9.00;;;2.67;;
63398;SDS011;49533;-34.520;150.798;2024-01-27T07:39:52;6.47;;;2.17;;
63398;SDS011;49533;-34.520;150.798;2024-01-27T07:42:19;10.07;;;3.10;;
63398;SDS011;49533;-34.520;150.798;2024-01-27T07:44:46;6.72;;;2.40;;
63398;SDS011;49533;-34.520;150.798;2024-01-27T07:47:15;11.70;;;2.88;;
63398;SDS011;49533;-34.520;150.798;2024-01-27T07:49:42;9.55;;;2.55;;
63398;SDS011;49533;-34.520;150.798;2024-01-27T07:52:10;13.52;;;3.17;;
63398;SDS011;49533;-34.520;150.798;2024-01-27T07:54:37;11.10;;;3.50;;
63398;SDS011;49533;-34.520;150.798;2024-01-27T07:57:05;11.50;;;3.03;;
63398;SDS011;49533;-34.520;150.798;2024-01-27T07:59:33;8.00;;;2.95;;
63398;SDS011;49533;-34.520;150.798;2024-01-27T08:02:00;9.23;;;3.10;;
63398;SDS011;49533;-34.520;150.798;2024-01-27T08:04:27;9.80;;;2.92;;
63398;SDS011;49533;-34.520;150.798;2024-01-27T08:06:54;8.27;;;2.45;;
63398;SDS011;49533;-34.520;150.798;2024-01-27T08:09:21;9.60;;;3.05;;
63398;SDS011;49533;-34.520;150.798;2024-01-27T08:11:49;9.25;;;2.75;;
63398;SDS011;49533;-34.520;150.798;2024-01-27T08:14:19;7.00;;;2.60;;
63398;SDS011;49533;-34.520;150.798;2024-01-27T08:16:47;9.05;;;3.75;;
63398;SDS011;49533;-34.520;150.798;2024-01-27T08:19:15;8.40;;;3.03;;
63398;SDS011;49533;-34.520;150.798;2024-01-27T08:21:46;7.25;;;2.80;;
63398;SDS011;49533;-34.520;150.798;2024-01-27T08:24:13;13.55;;;3.10;;
63398;SDS011;49533;-34.520;150.798;2024-01-27T08:26:41;8.18;;;2.78;;
63398;SDS011;49533;-34.520;150.798;2024-01-27T08:29:09;7.28;;;3.15;;
63398;SDS011;49533;-34.520;150.798;2024-01-27T08:31:36;8.00;;;2.45;;
63398;SDS011;49533;-34.520;150.798;2024-01-27T08:34:04;9.57;;;2.78;;
63398;SDS011;49533;-34.520;150.798;2024-01-27T08:36:31;10.40;;;2.35;;
63398;SDS011;49533;-34.520;150.798;2024-01-27T08:38:59;8.18;;;2.90;;
63398;SDS011;49533;-34.520;150.798;2024-01-27T08:41:27;6.82;;;2.58;;
63398;SDS011;49533;-34.520;150.798;2024-01-27T08:43:54;8.32;;;2.58;;
63398;SDS011;49533;-34.520;150.798;2024-01-27T08:46:21;9.27;;;2.83;;
63398;SDS011;49533;-34.520;150.798;2024-01-27T08:48:48;6.57;;;2.30;;
63398;SDS011;49533;-34.520;150.798;2024-01-27T08:51:15;6.60;;;2.90;;
63398;SDS011;49533;-34.520;150.798;2024-01-27T08:53:43;7.53;;;2.67;;
63398;SDS011;49533;-34.520;150.798;2024-01-27T08:56:17;4.57;;;2.35;;
63398;SDS011;49533;-34.520;150.798;2024-01-27T08:58:44;6.97;;;2.55;;
63398;SDS011;49533;-34.520;150.798;2024-01-27T09:01:13;6.68;;;2.50;;
63398;SDS011;49533;-34.520;150.798;2024-01-27T09:03:41;7.43;;;2.33;;
63398;SDS011;49533;-34.520;150.798;2024-01-27T09:06:09;5.88;;;2.70;;
63398;SDS011;49533;-34.520;150.798;2024-01-27T09:08:36;6.97;;;2.42;;
63398;SDS011;49533;-34.520;150.798;2024-01-27T09:11:03;7.95;;;2.35;;
63398;SDS011;49533;-34.520;150.798;2024-01-27T09:13:31;7.90;;;2.53;;
63398;SDS011;49533;-34.520;150.798;2024-01-27T09:15:58;8.95;;;2.80;;
63398;SDS011;49533;-34.520;150.798;2024-01-27T09:18:25;9.25;;;2.50;;
63398;SDS011;49533;-34.520;150.798;2024-01-27T09:20:53;6.40;;;2.85;;
63398;SDS011;49533;-34.520;150.798;2024-01-27T09:23:20;5.43;;;2.33;;
63398;SDS011;49533;-34.520;150.798;2024-01-27T09:25:47;6.75;;;2.30;;
63398;SDS011;49533;-34.520;150.798;2024-01-27T09:28:14;7.18;;;2.58;;
63398;SDS011;49533;-34.520;150.798;2024-01-27T09:30:42;4.90;;;2.28;;
63398;SDS011;49533;-34.520;150.798;2024-01-27T09:33:09;6.30;;;2.65;;
63398;SDS011;49533;-34.520;150.798;2024-01-27T09:35:36;6.57;;;2.42;;
63398;SDS011;49533;-34.520;150.798;2024-01-27T09:38:04;4.38;;;2.10;;
63398;SDS011;49533;-34.520;150.798;2024-01-27T09:40:38;4.53;;;1.98;;
63398;SDS011;49533;-34.520;150.798;2024-01-27T09:43:05;4.88;;;2.50;;
63398;SDS011;49533;-34.520;150.798;2024-01-27T09:45:32;5.60;;;2.38;;
63398;SDS011;49533;-34.520;150.798;2024-01-27T09:48:01;5.75;;;2.03;;
63398;SDS011;49533;-34.520;150.798;2024-01-27T09:50:31;4.93;;;1.88;;
63398;SDS011;49533;-34.520;150.798;2024-01-27T09:52:58;4.70;;;2.30;;
63398;SDS011;49533;-34.520;150.798;2024-01-27T09:55:26;5.60;;;2.28;;
63398;SDS011;49533;-34.520;150.798;2024-01-27T09:57:53;3.97;;;2.15;;
63398;SDS011;49533;-34.520;150.798;2024-01-27T10:00:23;5.63;;;2.20;;
63398;SDS011;49533;-34.520;150.798;2024-01-27T10:02:51;4.43;;;2.35;;
63398;SDS011;49533;-34.520;150.798;2024-01-27T10:05:19;4.90;;;2.22;;
63398;SDS011;49533;-34.520;150.798;2024-01-27T10:07:47;7.70;;;1.95;;
63398;SDS011;49533;-34.520;150.798;2024-01-27T10:10:15;4.78;;;1.98;;
63398;SDS011;49533;-34.520;150.798;2024-01-27T10:12:42;7.72;;;2.42;;
63398;SDS011;49533;-34.520;150.798;2024-01-27T10:15:22;3.25;;;1.70;;
63398;SDS011;49533;-34.520;150.798;2024-01-27T10:17:49;6.22;;;2.10;;
63398;SDS011;49533;-34.520;150.798;2024-01-27T10:20:16;7.57;;;2.47;;
63398;SDS011;49533;-34.520;150.798;2024-01-27T10:22:44;9.45;;;3.13;;
63398;SDS011;49533;-34.520;150.798;2024-01-27T10:25:12;6.38;;;2.50;;
63398;SDS011;49533;-34.520;150.798;2024-01-27T10:27:39;6.28;;;2.13;;
63398;SDS011;49533;-34.520;150.798;2024-01-27T10:30:14;10.30;;;2.92;;
63398;SDS011;49533;-34.520;150.798;2024-01-27T10:32:43;6.70;;;2.03;;
63398;SDS011;49533;-34.520;150.798;2024-01-27T10:35:21;6.90;;;2.60;;
63398;SDS011;49533;-34.520;150.798;2024-01-27T10:37:51;5.57;;;2.30;;
63398;SDS011;49533;-34.520;150.798;2024-01-27T10:40:19;6.25;;;2.25;;
63398;SDS011;49533;-34.520;150.798;2024-01-27T10:42:46;5.70;;;2.60;;
63398;SDS011;49533;-34.520;150.798;2024-01-27T10:45:17;6.32;;;2.47;;
63398;SDS011;49533;-34.520;150.798;2024-01-27T10:47:45;7.93;;;2.53;;
63398;SDS011;49533;-34.520;150.798;2024-01-27T10:50:14;6.53;;;2.67;;
63398;SDS011;49533;-34.520;150.798;2024-01-27T10:52:41;8.52;;;2.40;;
63398;SDS011;49533;-34.520;150.798;2024-01-27T10:55:11;8.07;;;2.67;;
63398;SDS011;49533;-34.520;150.798;2024-01-27T10:57:40;8.80;;;2.88;;
63398;SDS011;49533;-34.520;150.798;2024-01-27T11:00:09;7.95;;;2.83;;
63398;SDS011;49533;-34.520;150.798;2024-01-27T11:02:38;6.78;;;2.55;;
63398;SDS011;49533;-34.520;150.798;2024-01-27T11:05:08;4.65;;;2.20;;
63398;SDS011;49533;-34.520;150.798;2024-01-27T11:07:40;5.95;;;2.40;;
63398;SDS011;49533;-34.520;150.798;2024-01-27T11:10:08;6.03;;;2.60;;
63398;SDS011;49533;-34.520;150.798;2024-01-27T11:12:35;7.32;;;2.40;;
63398;SDS011;49533;-34.520;150.798;2024-01-27T11:15:03;6.68;;;2.38;;
63398;SDS011;49533;-34.520;150.798;2024-01-27T11:17:38;6.53;;;2.70;;
63398;SDS011;49533;-34.520;150.798;2024-01-27T11:20:07;6.50;;;2.00;;
63398;SDS011;49533;-34.520;150.798;2024-01-27T11:22:37;6.53;;;2.40;;
63398;SDS011;49533;-34.520;150.798;2024-01-27T11:25:08;6.93;;;2.83;;
63398;SDS011;49533;-34.520;150.798;2024-01-27T11:27:43;6.32;;;2.22;;
63398;SDS011;49533;-34.520;150.798;2024-01-27T11:30:28;9.02;;;2.70;;
63398;SDS011;49533;-34.520;150.798;2024-01-27T11:33:02;10.48;;;3.08;;
63398;SDS011;49533;-34.520;150.798;2024-01-27T11:35:30;6.53;;;2.30;;
63398;SDS011;49533;-34.520;150.798;2024-01-27T11:37:57;6.32;;;2.55;;
63398;SDS011;49533;-34.520;150.798;2024-01-27T11:40:25;9.05;;;2.85;;
63398;SDS011;49533;-34.520;150.798;2024-01-27T11:43:01;10.43;;;2.97;;
63398;SDS011;49533;-34.520;150.798;2024-01-27T11:45:28;5.60;;;2.35;;
63398;SDS011;49533;-34.520;150.798;2024-01-27T11:47:56;5.63;;;2.13;;
63398;SDS011;49533;-34.520;150.798;2024-01-27T11:50:23;7.25;;;2.50;;
63398;SDS011;49533;-34.520;150.798;2024-01-27T11:52:53;6.82;;;2.85;;
63398;SDS011;49533;-34.520;150.798;2024-01-27T11:55:22;8.35;;;3.05;;
63398;SDS011;49533;-34.520;150.798;2024-01-27T11:57:49;5.03;;;2.28;;
63398;SDS011;49533;-34.520;150.798;2024-01-27T12:00:17;6.55;;;2.15;;
63398;SDS011;49533;-34.520;150.798;2024-01-27T12:02:44;9.38;;;2.40;;
63398;SDS011;49533;-34.520;150.798;2024-01-27T12:05:16;4.95;;;2.55;;
63398;SDS011;49533;-34.520;150.798;2024-01-27T12:07:43;4.97;;;2.20;;
63398;SDS011;49533;-34.520;150.798;2024-01-27T12:10:10;4.80;;;2.00;;
63398;SDS011;49533;-34.520;150.798;2024-01-27T12:12:37;8.13;;;2.58;;
63398;SDS011;49533;-34.520;150.798;2024-01-27T12:15:05;5.18;;;2.55;;
63398;SDS011;49533;-34.520;150.798;2024-01-27T12:17:32;7.57;;;2.78;;
63398;SDS011;49533;-34.520;150.798;2024-01-27T12:20:00;5.90;;;2.22;;
63398;SDS011;49533;-34.520;150.798;2024-01-27T12:22:28;6.55;;;2.78;;
63398;SDS011;49533;-34.520;150.798;2024-01-27T12:24:56;6.75;;;2.65;;
63398;SDS011;49533;-34.520;150.798;2024-01-27T12:27:35;5.97;;;2.28;;
63398;SDS011;49533;-34.520;150.798;2024-01-27T12:30:03;6.40;;;2.60;;
63398;SDS011;49533;-34.520;150.798;2024-01-27T12:32:31;7.85;;;2.83;;
63398;SDS011;49533;-34.520;150.798;2024-01-27T12:34:58;6.00;;;2.45;;
63398;SDS011;49533;-34.520;150.798;2024-01-27T12:37:30;7.05;;;2.75;;
63398;SDS011;49533;-34.520;150.798;2024-01-27T12:39:57;6.57;;;3.17;;
63398;SDS011;49533;-34.520;150.798;2024-01-27T12:42:25;6.30;;;2.50;;
63398;SDS011;49533;-34.520;150.798;2024-01-27T12:44:52;4.57;;;1.92;;
63398;SDS011;49533;-34.520;150.798;2024-01-27T12:47:19;11.15;;;2.70;;
63398;SDS011;49533;-34.520;150.798;2024-01-27T12:49:46;7.15;;;2.67;;
63398;SDS011;49533;-34.520;150.798;2024-01-27T12:52:13;7.65;;;2.22;;
63398;SDS011;49533;-34.520;150.798;2024-01-27T12:54:43;6.75;;;2.90;;
63398;SDS011;49533;-34.520;150.798;2024-01-27T12:57:10;7.07;;;2.42;;
63398;SDS011;49533;-34.520;150.798;2024-01-27T12:59:37;9.02;;;2.58;;
63398;SDS011;49533;-34.520;150.798;2024-01-27T13:02:04;8.43;;;2.72;;
63398;SDS011;49533;-34.520;150.798;2024-01-27T13:04:31;7.18;;;2.60;;
63398;SDS011;49533;-34.520;150.798;2024-01-27T13:06:58;10.18;;;3.33;;
63398;SDS011;49533;-34.520;150.798;2024-01-27T13:09:25;8.23;;;2.50;;
63398;SDS011;49533;-34.520;150.798;2024-01-27T13:11:53;7.13;;;2.55;;
63398;SDS011;49533;-34.520;150.798;2024-01-27T13:14:20;7.35;;;2.65;;
63398;SDS011;49533;-34.520;150.798;2024-01-27T13:16:48;6.47;;;2.55;;
63398;SDS011;49533;-34.520;150.798;2024-01-27T13:19:15;8.32;;;3.20;;
63398;SDS011;49533;-34.520;150.798;2024-01-27T13:21:42;7.07;;;2.92;;
63398;SDS011;49533;-34.520;150.798;2024-01-27T13:24:09;6.68;;;3.13;;
63398;SDS011;49533;-34.520;150.798;2024-01-27T13:26:36;8.10;;;2.45;;
63398;SDS011;49533;-34.520;150.798;2024-01-27T13:29:04;8.63;;;2.20;;
63398;SDS011;49533;-34.520;150.798;2024-01-27T13:31:32;8.02;;;2.97;;
63398;SDS011;49533;-34.520;150.798;2024-01-27T13:33:59;7.68;;;2.97;;
63398;SDS011;49533;-34.520;150.798;2024-01-27T13:36:27;7.82;;;2.97;;
63398;SDS011;49533;-34.520;150.798;2024-01-27T13:38:54;6.20;;;2.53;;
63398;SDS011;49533;-34.520;150.798;2024-01-27T13:41:21;6.13;;;2.50;;
63398;SDS011;49533;-34.520;150.798;2024-01-27T13:43:48;6.00;;;2.22;;
63398;SDS011;49533;-34.520;150.798;2024-01-27T13:46:15;5.15;;;2.42;;
63398;SDS011;49533;-34.520;150.798;2024-01-27T13:48:42;5.03;;;2.40;;
63398;SDS011;49533;-34.520;150.798;2024-01-27T13:51:11;6.97;;;2.78;;
63398;SDS011;49533;-34.520;150.798;2024-01-27T13:53:41;4.90;;;2.80;;
63398;SDS011;49533;-34.520;150.798;2024-01-27T13:56:08;4.60;;;2.38;;
63398;SDS011;49533;-34.520;150.798;2024-01-27T13:58:35;6.13;;;2.80;;
63398;SDS011;49533;-34.520;150.798;2024-01-27T14:01:03;3.92;;;2.10;;
63398;SDS011;49533;-34.520;150.798;2024-01-27T14:03:33;6.53;;;2.95;;
63398;SDS011;49533;-34.520;150.798;2024-01-27T14:06:00;6.25;;;2.60;;
63398;SDS011;49533;-34.520;150.798;2024-01-27T14:08:27;4.18;;;2.40;;
63398;SDS011;49533;-34.520;150.798;2024-01-27T14:10:54;6.05;;;2.45;;